createdAt,value
2019-02-27T00:00:52.310Z,82.29
2019-02-27T00:01:52.317Z,82.87
2019-02-27T00:02:53.764Z,82.73
2019-02-27T00:03:52.348Z,82.49
2019-02-27T00:04:52.353Z,82.73
2019-02-27T00:05:52.364Z,82.73
2019-02-27T00:06:52.376Z,82.64
2019-02-27T00:07:54.859Z,83.20
2019-02-27T00:08:52.398Z,83.20
2019-02-27T00:09:52.417Z,83.78
2019-02-27T00:10:52.474Z,83.78
2019-02-27T00:11:52.434Z,84.44
2019-02-27T00:12:52.568Z,83.68
2019-02-27T00:13:52.459Z,83.97
2019-02-27T00:14:52.471Z,83.39
2019-02-27T00:15:52.483Z,83.39
2019-02-27T00:16:52.494Z,83.39
2019-02-27T00:17:52.507Z,83.49
2019-02-27T00:18:53.721Z,83.11
2019-02-27T00:19:52.535Z,83.49
2019-02-27T00:20:52.539Z,83.11
2019-02-27T00:21:52.551Z,82.64
2019-02-27T00:22:52.564Z,82.64
2019-02-27T00:23:56.713Z,82.82
2019-02-27T00:24:52.585Z,83.11
2019-02-27T00:25:52.599Z,83.30
2019-02-27T00:26:52.615Z,83.20
2019-02-27T00:27:52.623Z,83.59
2019-02-27T00:28:55.954Z,83.49
2019-02-27T00:29:52.638Z,83.87
2019-02-27T00:30:52.646Z,84.44
2019-02-27T00:31:52.659Z,84.16
2019-02-27T00:32:52.674Z,84.34
2019-02-27T00:33:52.686Z,84.16
2019-02-27T00:34:52.697Z,84.44
2019-02-27T00:35:52.706Z,85.01
2019-02-27T00:36:52.715Z,85.11
2019-02-27T00:37:52.777Z,84.63
2019-02-27T00:38:52.746Z,85.49
2019-02-27T00:39:52.754Z,85.49
2019-02-27T00:40:52.765Z,85.49
2019-02-27T00:41:52.781Z,85.11
2019-02-27T00:42:54.445Z,85.39
2019-02-27T00:43:52.801Z,85.58
2019-02-27T00:44:52.808Z,85.77
2019-02-27T00:45:52.824Z,86.15
2019-02-27T00:46:52.838Z,86.05
2019-02-27T00:47:53.772Z,86.15
2019-02-27T00:48:52.860Z,86.24
2019-02-27T00:49:52.866Z,85.96
2019-02-27T00:50:52.887Z,86.43
2019-02-27T00:51:52.891Z,86.24
2019-02-27T00:52:52.909Z,86.34
2019-02-27T00:53:52.916Z,86.43
2019-02-27T00:54:52.927Z,85.86
2019-02-27T00:55:52.939Z,86.15
2019-02-27T00:56:52.954Z,86.15
2019-02-27T00:57:54.472Z,86.72
2019-02-27T00:58:52.974Z,87.91
2019-02-27T00:59:52.987Z,87.19
2019-02-27T01:00:52.997Z,87.48
2019-02-27T01:01:53.016Z,87.10
2019-02-27T01:02:53.671Z,86.72
2019-02-27T01:03:53.039Z,86.82
2019-02-27T01:04:53.048Z,86.43
2019-02-27T01:05:53.054Z,86.58
2019-02-27T01:06:53.064Z,86.82
2019-02-27T01:07:54.204Z,87.91
2019-02-27T01:08:53.089Z,87.34
2019-02-27T01:09:53.098Z,87.53
2019-02-27T01:10:53.111Z,86.87
2019-02-27T01:11:53.127Z,86.87
2019-02-27T01:12:53.136Z,87.62
2019-02-27T01:13:53.143Z,87.34
2019-02-27T01:14:53.155Z,87.34
2019-02-27T01:15:53.167Z,86.77
2019-02-27T01:16:53.180Z,86.87
2019-02-27T01:17:54.997Z,87.43
2019-02-27T01:18:53.209Z,86.87
2019-02-27T01:19:53.220Z,86.68
2019-02-27T01:20:53.251Z,87.15
2019-02-27T01:21:53.234Z,87.05
2019-02-27T01:22:53.252Z,88.20
2019-02-27T01:23:53.265Z,88.10
2019-02-27T01:24:53.273Z,88.20
2019-02-27T01:25:56.095Z,87.34
2019-02-27T01:26:53.294Z,86.96
2019-02-27T01:27:53.305Z,85.91
2019-02-27T01:28:53.319Z,85.82
2019-02-27T01:29:53.329Z,84.87
2019-02-27T01:30:53.345Z,84.87
2019-02-27T01:31:55.022Z,83.45
2019-02-27T01:32:53.372Z,82.12
2019-02-27T01:33:53.381Z,81.55
2019-02-27T01:34:53.383Z,81.65
2019-02-27T01:35:53.404Z,80.79
2019-02-27T01:36:57.592Z,81.45
2019-02-27T01:37:53.421Z,80.32
2019-02-27T01:38:53.435Z,80.51
2019-02-27T01:39:53.442Z,80.41
2019-02-27T01:40:53.461Z,80.79
2019-02-27T01:41:55.307Z,80.13
2019-02-27T01:42:53.481Z,80.32
2019-02-27T01:43:53.489Z,80.03
2019-02-27T01:44:53.498Z,80.13
2019-02-27T01:45:54.438Z,80.03
2019-02-27T01:46:54.699Z,80.98
2019-02-27T01:47:53.536Z,80.03
2019-02-27T01:48:53.550Z,78.80
2019-02-27T01:49:53.553Z,79.84
2019-02-27T01:50:55.325Z,79.55
2019-02-27T01:51:53.586Z,79.84
2019-02-27T01:52:53.591Z,79.17
2019-02-27T01:53:53.600Z,80.41
2019-02-27T01:54:53.620Z,80.60
2019-02-27T01:55:56.173Z,80.13
2019-02-27T01:56:53.636Z,80.98
2019-02-27T01:57:53.655Z,80.41
2019-02-27T01:58:53.658Z,79.27
2019-02-27T01:59:53.668Z,79.74
2019-02-27T02:00:56.081Z,79.94
2019-02-27T02:01:53.689Z,79.84
2019-02-27T02:02:53.702Z,78.80
2019-02-27T02:03:53.723Z,79.65
2019-02-27T02:04:53.903Z,78.99
2019-02-27T02:05:53.739Z,79.94
2019-02-27T02:06:53.747Z,79.74
2019-02-27T02:07:53.761Z,79.65
2019-02-27T02:08:53.772Z,79.84
2019-02-27T02:09:55.036Z,80.22
2019-02-27T02:10:53.791Z,80.22
2019-02-27T02:11:53.805Z,80.22
2019-02-27T02:12:53.918Z,80.03
2019-02-27T02:13:53.832Z,80.13
2019-02-27T02:14:54.300Z,80.32
2019-02-27T02:15:53.851Z,79.74
2019-02-27T02:16:53.862Z,79.94
2019-02-27T02:17:53.875Z,80.32
2019-02-27T02:18:53.887Z,80.22
2019-02-27T02:19:54.702Z,80.51
2019-02-27T02:20:53.910Z,80.69
2019-02-27T02:21:53.922Z,81.45
2019-02-27T02:22:53.928Z,81.13
2019-02-27T02:23:53.950Z,80.79
2019-02-27T02:24:54.252Z,80.03
2019-02-27T02:25:53.964Z,80.84
2019-02-27T02:26:53.974Z,80.56
2019-02-27T02:27:53.986Z,80.32
2019-02-27T02:28:53.998Z,80.75
2019-02-27T02:29:54.014Z,79.90
2019-02-27T02:30:54.022Z,79.04
2019-02-27T02:31:54.031Z,79.42
2019-02-27T02:32:54.042Z,80.18
2019-02-27T02:33:54.053Z,79.80
2019-02-27T02:34:54.068Z,81.13
2019-02-27T02:35:54.077Z,80.08
2019-02-27T02:36:54.092Z,79.80
2019-02-27T02:37:54.102Z,79.80
2019-02-27T02:38:54.109Z,80.94
2019-02-27T02:39:55.238Z,81.41
2019-02-27T02:40:54.149Z,81.51
2019-02-27T02:41:54.145Z,80.94
2019-02-27T02:42:54.158Z,80.94
2019-02-27T02:43:54.165Z,80.65
2019-02-27T02:44:57.505Z,80.27
2019-02-27T02:45:54.183Z,80.18
2019-02-27T02:46:54.205Z,80.56
2019-02-27T02:47:55.871Z,81.13
2019-02-27T02:48:54.217Z,80.65
2019-02-27T02:49:54.233Z,81.60
2019-02-27T02:50:55.046Z,81.32
2019-02-27T02:51:54.250Z,81.60
2019-02-27T02:52:54.262Z,82.08
2019-02-27T02:54:00.394Z,82.36
2019-02-27T02:54:54.293Z,83.03
2019-02-27T02:55:54.298Z,82.65
2019-02-27T02:57:00.210Z,82.74
2019-02-27T02:57:54.321Z,82.55
2019-02-27T02:58:54.339Z,82.08
2019-02-27T02:59:59.405Z,81.13
2019-02-27T03:00:54.351Z,80.56
2019-02-27T03:01:54.364Z,81.79
2019-02-27T03:02:57.494Z,81.41
2019-02-27T03:03:54.384Z,81.60
2019-02-27T03:04:54.403Z,80.94
2019-02-27T03:05:58.588Z,80.27
2019-02-27T03:06:54.425Z,80.94
2019-02-27T03:07:54.432Z,81.13
2019-02-27T03:08:55.318Z,81.04
2019-02-27T03:09:54.458Z,80.46
2019-02-27T03:10:54.482Z,81.79
2019-02-27T03:11:55.629Z,82.74
2019-02-27T03:12:54.489Z,82.08
2019-02-27T03:13:54.497Z,81.41
2019-02-27T03:14:54.653Z,81.04
2019-02-27T03:15:54.519Z,81.41
2019-02-27T03:16:54.531Z,81.13
2019-02-27T03:17:55.091Z,80.94
2019-02-27T03:18:54.554Z,81.04
2019-02-27T03:19:54.561Z,80.56
2019-02-27T03:20:54.573Z,80.75
2019-02-27T03:21:54.587Z,80.94
2019-02-27T03:22:54.598Z,80.65
2019-02-27T03:23:54.608Z,80.65
2019-02-27T03:24:54.617Z,80.37
2019-02-27T03:25:54.626Z,79.90
2019-02-27T03:26:54.640Z,80.56
2019-02-27T03:27:54.655Z,80.37
2019-02-27T03:28:54.659Z,81.04
2019-02-27T03:29:54.674Z,81.60
2019-02-27T03:30:54.687Z,81.79
2019-02-27T03:32:00.038Z,81.04
2019-02-27T03:32:54.739Z,81.41
2019-02-27T03:34:05.387Z,80.84
2019-02-27T03:34:54.727Z,81.04
2019-02-27T03:35:54.737Z,80.27
2019-02-27T03:36:54.752Z,80.37
2019-02-27T03:37:54.764Z,80.18
2019-02-27T03:38:55.889Z,79.80
2019-02-27T03:39:54.784Z,79.99
2019-02-27T03:40:54.797Z,79.80
2019-02-27T03:41:58.499Z,79.99
2019-02-27T03:42:54.819Z,80.08
2019-02-27T03:43:54.826Z,80.08
2019-02-27T03:44:56.172Z,79.99
2019-02-27T03:45:54.848Z,80.75
2019-02-27T03:46:54.947Z,79.99
2019-02-27T03:47:54.872Z,81.04
2019-02-27T03:48:54.886Z,81.04
2019-02-27T03:49:54.890Z,80.94
2019-02-27T03:50:54.900Z,81.37
2019-02-27T03:51:59.858Z,81.32
2019-02-27T03:52:54.926Z,82.08
2019-02-27T03:53:54.941Z,82.04
2019-02-27T03:54:58.052Z,81.79
2019-02-27T03:55:54.960Z,81.60
2019-02-27T03:56:54.974Z,81.32
2019-02-27T03:57:56.028Z,80.94
2019-02-27T03:58:54.991Z,81.23
2019-02-27T03:59:55.001Z,81.60
2019-02-27T04:00:55.015Z,81.70
2019-02-27T04:01:55.024Z,81.41
2019-02-27T04:02:55.032Z,81.09
2019-02-27T04:03:55.404Z,81.47
2019-02-27T04:04:55.069Z,81.56
2019-02-27T04:05:55.062Z,81.18
2019-02-27T04:06:56.473Z,81.47
2019-02-27T04:07:55.093Z,81.94
2019-02-27T04:08:55.099Z,82.32
2019-02-27T04:09:56.371Z,81.66
2019-02-27T04:10:55.116Z,81.09
2019-02-27T04:11:55.126Z,81.09
2019-02-27T04:12:55.139Z,81.66
2019-02-27T04:13:55.153Z,81.18
2019-02-27T04:14:55.162Z,80.80
2019-02-27T04:15:55.187Z,81.75
2019-02-27T04:16:55.187Z,82.04
2019-02-27T04:17:55.194Z,82.13
2019-02-27T04:18:55.203Z,83.46
2019-02-27T04:19:55.534Z,82.51
2019-02-27T04:20:55.231Z,82.79
2019-02-27T04:22:00.451Z,82.60
2019-02-27T04:22:55.247Z,82.42
2019-02-27T04:23:55.261Z,82.89
2019-02-27T04:24:56.849Z,82.70
2019-02-27T04:25:55.280Z,83.17
2019-02-27T04:26:55.289Z,82.98
2019-02-27T04:27:56.257Z,83.36
2019-02-27T04:28:55.315Z,82.60
2019-02-27T04:29:55.322Z,82.51
2019-02-27T04:30:55.331Z,82.42
2019-02-27T04:31:55.372Z,82.70
2019-02-27T04:32:55.358Z,82.89
2019-02-27T04:33:59.830Z,82.89
2019-02-27T04:34:55.404Z,82.79
2019-02-27T04:35:55.386Z,82.60
2019-02-27T04:36:55.405Z,83.17
2019-02-27T04:37:55.409Z,83.27
2019-02-27T04:38:55.420Z,83.65
2019-02-27T04:39:55.431Z,83.94
2019-02-27T04:40:55.441Z,83.94
2019-02-27T04:41:55.452Z,83.74
2019-02-27T04:42:57.004Z,84.03
2019-02-27T04:43:55.475Z,84.98
2019-02-27T04:44:55.488Z,84.69
2019-02-27T04:45:55.494Z,84.69
2019-02-27T04:46:55.645Z,85.07
2019-02-27T04:47:55.514Z,84.78
2019-02-27T04:48:55.531Z,85.93
2019-02-27T04:49:55.540Z,86.11
2019-02-27T04:50:55.550Z,86.21
2019-02-27T04:51:55.564Z,86.02
2019-02-27T04:52:57.638Z,85.74
2019-02-27T04:53:55.582Z,85.26
2019-02-27T04:54:55.592Z,85.83
2019-02-27T04:55:55.604Z,86.02
2019-02-27T04:56:57.554Z,85.83
2019-02-27T04:57:55.622Z,85.83
2019-02-27T04:58:55.642Z,86.21
2019-02-27T04:59:55.640Z,86.02
2019-02-27T05:00:59.158Z,85.64
2019-02-27T05:01:55.665Z,85.83
2019-02-27T05:02:55.687Z,85.36
2019-02-27T05:03:55.687Z,85.83
2019-02-27T05:04:55.705Z,85.45
2019-02-27T05:05:55.709Z,84.59
2019-02-27T05:06:55.719Z,84.59
2019-02-27T05:07:55.730Z,84.78
2019-02-27T05:08:59.809Z,84.78
2019-02-27T05:09:55.750Z,84.88
2019-02-27T05:10:55.763Z,85.55
2019-02-27T05:11:55.768Z,86.87
2019-02-27T05:12:55.791Z,85.74
2019-02-27T05:13:55.791Z,85.74
2019-02-27T05:14:55.804Z,85.83
2019-02-27T05:15:55.814Z,86.30
2019-02-27T05:16:55.826Z,85.64
2019-02-27T05:17:56.300Z,85.26
2019-02-27T05:18:55.842Z,86.02
2019-02-27T05:19:55.855Z,85.55
2019-02-27T05:20:55.869Z,85.45
2019-02-27T05:21:55.879Z,84.88
2019-02-27T05:23:00.097Z,84.50
2019-02-27T05:23:55.926Z,84.12
2019-02-27T05:24:55.915Z,84.69
2019-02-27T05:25:56.376Z,85.26
2019-02-27T05:26:58.128Z,85.55
2019-02-27T05:27:55.941Z,86.02
2019-02-27T05:28:55.962Z,85.07
2019-02-27T05:29:55.961Z,85.55
2019-02-27T05:30:55.982Z,85.55
2019-02-27T05:31:55.991Z,86.02
2019-02-27T05:32:55.999Z,86.30
2019-02-27T05:33:56.010Z,86.02
2019-02-27T05:34:56.019Z,86.40
2019-02-27T05:35:57.322Z,86.87
2019-02-27T05:36:56.043Z,86.21
2019-02-27T05:37:56.053Z,87.25
2019-02-27T05:38:56.060Z,86.21
2019-02-27T05:39:56.087Z,86.30
2019-02-27T05:40:59.818Z,86.30
2019-02-27T05:41:56.090Z,86.30
2019-02-27T05:42:56.105Z,86.87
2019-02-27T05:43:56.112Z,86.87
2019-02-27T05:44:56.722Z,87.49
2019-02-27T05:45:56.160Z,87.82
2019-02-27T05:46:56.152Z,87.02
2019-02-27T05:47:56.167Z,87.30
2019-02-27T05:48:56.163Z,87.12
2019-02-27T05:49:57.967Z,86.93
2019-02-27T05:50:56.416Z,87.06
2019-02-27T05:51:56.196Z,87.35
2019-02-27T05:52:56.209Z,86.97
2019-02-27T05:53:58.495Z,87.06
2019-02-27T05:54:56.488Z,86.78
2019-02-27T05:55:56.237Z,87.35
2019-02-27T05:56:56.249Z,86.68
2019-02-27T05:57:56.282Z,87.16
2019-02-27T05:58:56.841Z,87.25
2019-02-27T05:59:56.282Z,87.35
2019-02-27T06:00:56.309Z,87.54
2019-02-27T06:02:56.934Z,87.25
2019-02-27T06:03:56.743Z,87.16
2019-02-27T06:04:59.156Z,87.06
2019-02-27T06:05:56.347Z,87.25
2019-02-27T06:06:56.453Z,87.35
2019-02-27T06:07:56.367Z,88.01
2019-02-27T06:08:56.377Z,89.34
2019-02-27T06:09:56.469Z,89.25
2019-02-27T06:10:56.416Z,88.68
2019-02-27T06:11:56.639Z,88.39
2019-02-27T06:12:56.474Z,88.29
2019-02-27T06:13:56.426Z,88.39
2019-02-27T06:14:56.485Z,88.20
2019-02-27T06:15:56.454Z,88.01
2019-02-27T06:16:56.457Z,86.78
2019-02-27T06:17:56.476Z,86.40
2019-02-27T06:18:56.975Z,85.93
2019-02-27T06:19:56.500Z,86.11
2019-02-27T06:20:56.574Z,86.11
2019-02-27T06:21:56.924Z,85.64
2019-02-27T06:22:56.533Z,85.45
2019-02-27T06:23:56.542Z,86.21
2019-02-27T06:24:56.635Z,85.55
2019-02-27T06:25:59.380Z,85.45
2019-02-27T06:26:56.564Z,86.30
2019-02-27T06:27:56.576Z,86.49
2019-02-27T06:28:56.585Z,86.40
2019-02-27T06:29:57.035Z,86.21
2019-02-27T06:30:56.611Z,86.02
2019-02-27T06:31:56.622Z,85.74
2019-02-27T06:32:56.680Z,85.93
2019-02-27T06:33:56.639Z,85.36
2019-02-27T06:34:59.098Z,85.07
2019-02-27T06:35:56.663Z,85.17
2019-02-27T06:36:56.676Z,84.88
2019-02-27T06:37:56.684Z,84.78
2019-02-27T06:39:00.087Z,84.50
2019-02-27T06:39:56.712Z,85.45
2019-02-27T06:40:56.718Z,86.59
2019-02-27T06:41:56.738Z,86.78
2019-02-27T06:42:56.956Z,87.35
2019-02-27T06:43:58.926Z,86.40
2019-02-27T06:44:56.765Z,85.83
2019-02-27T06:45:56.777Z,85.83
2019-02-27T06:46:56.784Z,85.83
2019-02-27T06:47:56.786Z,86.30
2019-02-27T06:48:56.802Z,86.02
2019-02-27T06:49:56.817Z,86.02
2019-02-27T06:50:58.335Z,85.83
2019-02-27T06:51:56.833Z,85.83
2019-02-27T06:52:56.865Z,85.93
2019-02-27T06:53:56.851Z,86.02
2019-02-27T06:54:56.862Z,86.40
2019-02-27T06:55:56.905Z,86.40
2019-02-27T06:56:56.922Z,86.78
2019-02-27T06:57:56.893Z,88.01
2019-02-27T06:58:56.907Z,87.73
2019-02-27T06:59:57.490Z,88.48
2019-02-27T07:00:56.927Z,87.82
2019-02-27T07:01:56.939Z,87.63
2019-02-27T07:02:56.945Z,87.35
2019-02-27T07:03:57.046Z,85.93
2019-02-27T07:04:57.113Z,86.49
2019-02-27T07:05:56.975Z,86.68
2019-02-27T07:06:57.057Z,86.02
2019-02-27T07:07:57.001Z,86.21
2019-02-27T07:08:57.015Z,86.02
2019-02-27T07:09:57.033Z,86.02
2019-02-27T07:10:58.932Z,85.45
2019-02-27T07:11:57.052Z,85.45
2019-02-27T07:12:57.059Z,85.45
2019-02-27T07:13:57.067Z,85.17
2019-02-27T07:14:57.078Z,84.98
2019-02-27T07:15:57.151Z,85.07
2019-02-27T07:16:57.830Z,85.36
2019-02-27T07:17:57.111Z,86.02
2019-02-27T07:18:57.125Z,85.74
2019-02-27T07:19:57.127Z,85.93
2019-02-27T07:20:58.491Z,85.55
2019-02-27T07:21:57.509Z,86.30
2019-02-27T07:22:57.469Z,86.21
2019-02-27T07:23:58.539Z,86.21
2019-02-27T07:24:57.426Z,85.74
2019-02-27T07:25:57.187Z,86.59
2019-02-27T07:26:57.225Z,86.30
2019-02-27T07:27:57.224Z,86.21
2019-02-27T07:28:57.217Z,85.83
2019-02-27T07:29:57.229Z,85.74
2019-02-27T07:30:57.245Z,86.40
2019-02-27T07:31:57.302Z,85.26
2019-02-27T07:32:57.263Z,84.31
2019-02-27T07:33:57.273Z,83.08
2019-02-27T07:34:57.311Z,83.94
2019-02-27T07:35:57.305Z,83.94
2019-02-27T07:37:57.313Z,84.22
2019-02-27T07:38:58.275Z,83.97
2019-02-27T07:39:57.338Z,83.40
2019-02-27T07:40:57.412Z,82.84
2019-02-27T07:41:57.365Z,82.36
2019-02-27T07:42:57.372Z,82.93
2019-02-27T07:43:57.383Z,82.93
2019-02-27T07:44:57.398Z,84.36
2019-02-27T07:45:57.404Z,83.22
2019-02-27T07:46:58.077Z,81.88
2019-02-27T07:47:57.422Z,82.08
2019-02-27T07:48:57.445Z,81.23
2019-02-27T07:49:57.450Z,81.51
2019-02-27T07:50:58.207Z,81.70
2019-02-27T07:51:58.065Z,82.17
2019-02-27T07:52:57.484Z,81.79
2019-02-27T07:53:57.498Z,83.03
2019-02-27T07:54:57.502Z,82.74
2019-02-27T07:55:57.523Z,82.08
2019-02-27T07:56:57.533Z,80.79
2019-02-27T07:58:57.589Z,80.79
2019-02-27T07:59:57.565Z,80.51
2019-02-27T08:00:58.611Z,80.41
2019-02-27T08:02:02.296Z,80.13
2019-02-27T08:02:57.588Z,79.55
2019-02-27T08:03:57.616Z,80.51
2019-02-27T08:04:57.611Z,80.13
2019-02-27T08:05:59.875Z,79.27
2019-02-27T08:06:57.647Z,79.17
2019-02-27T08:07:57.656Z,78.13
2019-02-27T08:08:57.831Z,78.61
2019-02-27T08:09:57.668Z,79.08
2019-02-27T08:10:57.681Z,78.23
2019-02-27T08:11:57.691Z,78.51
2019-02-27T08:12:57.720Z,78.55
2019-02-27T08:13:57.722Z,77.79
2019-02-27T08:14:57.725Z,78.08
2019-02-27T08:15:58.096Z,76.56
2019-02-27T08:16:58.188Z,76.56
2019-02-27T08:17:58.638Z,76.27
2019-02-27T08:18:57.788Z,75.99
2019-02-27T08:19:57.810Z,75.79
2019-02-27T08:20:57.798Z,76.18
2019-02-27T08:21:58.706Z,76.56
2019-02-27T08:22:58.003Z,76.84
2019-02-27T08:23:57.830Z,76.27
2019-02-27T08:24:57.949Z,75.60
2019-02-27T08:25:57.913Z,75.51
2019-02-27T08:26:57.873Z,75.13
2019-02-27T08:27:57.887Z,76.08
2019-02-27T08:28:57.912Z,75.70
2019-02-27T08:29:59.758Z,75.23
2019-02-27T08:30:57.917Z,74.75
2019-02-27T08:32:00.704Z,74.37
2019-02-27T08:32:57.964Z,73.93
2019-02-27T08:33:58.046Z,73.90
2019-02-27T08:34:57.952Z,73.74
2019-02-27T08:35:57.965Z,73.18
2019-02-27T08:36:57.997Z,72.89
2019-02-27T08:38:02.577Z,73.08
2019-02-27T08:38:58.003Z,72.32
2019-02-27T08:39:58.014Z,71.94
2019-02-27T08:40:58.552Z,71.56
2019-02-27T08:41:58.066Z,71.27
2019-02-27T08:43:58.060Z,70.79
2019-02-27T08:44:58.074Z,70.99
2019-02-27T08:46:02.151Z,71.84
2019-02-27T08:46:58.098Z,71.46
2019-02-27T08:47:58.120Z,71.66
2019-02-27T08:48:58.380Z,71.56
2019-02-27T08:49:58.649Z,71.56
2019-02-27T08:50:58.147Z,71.46
2019-02-27T08:51:58.158Z,71.41
2019-02-27T08:52:58.176Z,71.22
2019-02-27T08:53:59.250Z,71.50
2019-02-27T08:54:58.192Z,71.41
2019-02-27T08:55:58.214Z,71.50
2019-02-27T08:56:58.236Z,71.02
2019-02-27T08:57:58.241Z,71.31
2019-02-27T08:58:58.242Z,70.74
2019-02-27T08:59:58.249Z,70.64
2019-02-27T09:00:58.260Z,70.74
2019-02-27T09:01:58.277Z,70.64
2019-02-27T09:03:02.419Z,70.17
2019-02-27T09:03:59.288Z,70.17
2019-02-27T09:04:58.334Z,69.88
2019-02-27T09:05:58.328Z,69.88
2019-02-27T09:07:02.318Z,70.10
2019-02-27T09:07:58.351Z,69.63
2019-02-27T09:08:58.359Z,69.63
2019-02-27T09:09:58.395Z,69.25
2019-02-27T09:10:58.380Z,69.35
2019-02-27T09:11:58.394Z,68.96
2019-02-27T09:13:05.397Z,69.15
2019-02-27T09:13:58.416Z,68.96
2019-02-27T09:14:58.435Z,68.96
2019-02-27T09:15:58.443Z,68.30
2019-02-27T09:16:58.457Z,68.68
2019-02-27T09:17:59.188Z,68.11
2019-02-27T09:18:58.483Z,68.01
2019-02-27T09:19:58.524Z,67.25
2019-02-27T09:20:58.509Z,66.91
2019-02-27T09:21:59.934Z,66.62
2019-02-27T09:22:58.531Z,66.72
2019-02-27T09:23:58.558Z,66.72
2019-02-27T09:24:58.566Z,66.62
2019-02-27T09:26:02.436Z,66.33
2019-02-27T09:26:58.581Z,66.43
2019-02-27T09:27:58.591Z,65.86
2019-02-27T09:28:58.612Z,65.58
2019-02-27T09:29:58.639Z,65.77
2019-02-27T09:31:03.172Z,65.67
2019-02-27T09:31:58.643Z,65.70
2019-02-27T09:32:58.656Z,65.42
2019-02-27T09:33:58.668Z,64.94
2019-02-27T09:34:59.622Z,65.23
2019-02-27T09:35:58.693Z,64.75
2019-02-27T09:36:58.707Z,64.65
2019-02-27T09:37:58.884Z,64.18
2019-02-27T09:38:58.801Z,64.08
2019-02-27T09:39:58.739Z,63.32
2019-02-27T09:40:58.759Z,63.51
2019-02-27T09:41:58.769Z,63.51
2019-02-27T09:42:58.785Z,63.60
2019-02-27T09:44:01.381Z,63.64
2019-02-27T09:44:59.752Z,63.45
2019-02-27T09:45:58.975Z,63.35
2019-02-27T09:46:58.855Z,62.97
2019-02-27T09:47:59.927Z,62.88
2019-02-27T09:48:58.852Z,62.30
2019-02-27T09:49:58.949Z,61.64
2019-02-27T09:50:58.883Z,61.64
2019-02-27T09:51:58.888Z,61.25
2019-02-27T09:53:01.130Z,61.29
2019-02-27T09:53:58.925Z,60.72
2019-02-27T09:54:59.028Z,60.72
2019-02-27T09:55:58.944Z,59.95
2019-02-27T09:57:02.055Z,59.76
2019-02-27T09:57:58.983Z,59.00
2019-02-27T09:58:58.997Z,58.55
2019-02-27T09:59:59.048Z,58.55
2019-02-27T10:01:00.270Z,58.07
2019-02-27T10:01:59.038Z,58.07
2019-02-27T10:02:59.039Z,57.50
2019-02-27T10:03:59.045Z,57.31
2019-02-27T10:05:03.096Z,57.79
2019-02-27T10:05:59.069Z,57.89
2019-02-27T10:06:59.089Z,58.07
2019-02-27T10:07:59.103Z,57.12
2019-02-27T10:08:59.748Z,57.06
2019-02-27T10:09:59.130Z,56.77
2019-02-27T10:10:59.249Z,56.77
2019-02-27T10:11:59.172Z,56.20
2019-02-27T10:12:59.926Z,55.72
2019-02-27T10:13:59.189Z,55.24
2019-02-27T10:14:59.221Z,55.24
2019-02-27T10:16:01.321Z,54.89
2019-02-27T10:16:59.226Z,54.89
2019-02-27T10:17:59.259Z,54.79
2019-02-27T10:18:59.463Z,54.99
2019-02-27T10:20:02.526Z,54.22
2019-02-27T10:20:59.748Z,54.13
2019-02-27T10:21:59.281Z,53.93
2019-02-27T10:22:59.301Z,53.65
2019-02-27T10:23:59.310Z,53.17
2019-02-27T10:24:59.324Z,53.27
2019-02-27T10:25:59.348Z,53.45
2019-02-27T10:26:59.347Z,53.86
2019-02-27T10:28:03.261Z,53.67
2019-02-27T10:28:59.375Z,53.29
2019-02-27T10:30:59.410Z,52.05
2019-02-27T10:32:00.719Z,52.43
2019-02-27T10:32:59.446Z,52.43
2019-02-27T10:34:00.436Z,52.26
2019-02-27T10:34:59.458Z,51.79
2019-02-27T10:36:03.028Z,50.84
2019-02-27T10:36:59.522Z,50.74
2019-02-27T10:37:59.503Z,50.74
2019-02-27T10:39:02.078Z,50.16
2019-02-27T10:40:00.527Z,48.73
2019-02-27T10:40:59.540Z,48.25
2019-02-27T10:41:59.560Z,48.47
2019-02-27T10:42:59.595Z,48.18
2019-02-27T10:43:59.670Z,48.28
2019-02-27T10:44:59.592Z,48.75
2019-02-27T10:46:00.259Z,48.95
2019-02-27T10:47:00.647Z,49.33
2019-02-27T10:47:59.648Z,48.57
2019-02-27T10:48:59.643Z,48.09
2019-02-27T10:50:02.139Z,48.09
2019-02-27T10:51:00.223Z,47.32
2019-02-27T10:51:59.706Z,46.27
2019-02-27T10:52:59.704Z,45.12
2019-02-27T10:54:03.007Z,45.41
2019-02-27T10:54:59.727Z,45.34
2019-02-27T10:55:59.748Z,45.05
2019-02-27T10:56:59.755Z,45.24
2019-02-27T10:57:59.782Z,45.43
2019-02-27T10:58:59.786Z,44.67
2019-02-27T10:59:59.826Z,44.19
2019-02-27T11:01:01.227Z,44.29
2019-02-27T11:01:59.999Z,44.40
2019-02-27T11:02:59.846Z,44.12
2019-02-27T11:04:00.494Z,44.21
2019-02-27T11:04:59.866Z,44.31
2019-02-27T11:05:59.881Z,44.02
2019-02-27T11:06:59.897Z,44.12
2019-02-27T11:07:59.915Z,44.59
2019-02-27T11:09:04.395Z,44.40
2019-02-27T11:09:59.941Z,45.36
2019-02-27T11:11:00.123Z,45.45
2019-02-27T11:11:59.979Z,45.86
2019-02-27T11:12:59.989Z,45.94
2019-02-27T11:13:59.997Z,45.57
2019-02-27T11:15:01.696Z,44.33
2019-02-27T11:16:00.020Z,44.31
2019-02-27T11:17:02.564Z,44.40
2019-02-27T11:18:04.451Z,45.48
2019-02-27T11:20:00.195Z,45.48
2019-02-27T11:21:02.200Z,45.57
2019-02-27T11:22:00.272Z,45.67
2019-02-27T11:23:00.133Z,45.48
2019-02-27T11:24:00.133Z,45.76
2019-02-27T11:25:00.229Z,45.57
2019-02-27T11:26:00.174Z,45.38
2019-02-27T11:27:00.195Z,45.67
2019-02-27T11:28:00.486Z,45.69
2019-02-27T11:29:00.211Z,45.40
2019-02-27T11:30:02.893Z,45.48
2019-02-27T11:31:00.540Z,45.50
2019-02-27T11:32:00.246Z,45.89
2019-02-27T11:33:00.278Z,45.89
2019-02-27T11:34:01.144Z,45.98
2019-02-27T11:35:00.348Z,45.50
2019-02-27T11:36:00.327Z,45.59
2019-02-27T11:37:00.317Z,45.79
2019-02-27T11:38:00.329Z,46.17
2019-02-27T11:39:00.339Z,45.69
2019-02-27T11:40:00.437Z,45.50
2019-02-27T11:41:00.421Z,45.79
2019-02-27T11:42:00.606Z,45.40
2019-02-27T11:43:01.076Z,44.73
2019-02-27T11:44:00.424Z,45.50
2019-02-27T11:45:00.638Z,45.50
2019-02-27T11:46:00.442Z,45.59
2019-02-27T11:47:00.464Z,45.81
2019-02-27T11:48:01.364Z,46.19
2019-02-27T11:49:03.056Z,45.79
2019-02-27T11:50:00.502Z,45.52
2019-02-27T11:51:00.806Z,45.81
2019-02-27T11:52:00.527Z,45.52
2019-02-27T11:53:03.124Z,45.43
2019-02-27T11:54:00.587Z,45.62
2019-02-27T11:55:01.587Z,45.52
2019-02-27T11:56:00.606Z,45.52
2019-02-27T11:57:00.611Z,45.43
2019-02-27T11:58:04.575Z,45.81
2019-02-27T11:59:00.629Z,45.43
2019-02-27T12:00:00.639Z,45.62
2019-02-27T12:01:01.181Z,45.62
2019-02-27T12:02:00.680Z,45.62
2019-02-27T12:03:00.683Z,45.81
2019-02-27T12:04:01.278Z,46.58
2019-02-27T12:05:00.818Z,45.52
2019-02-27T12:06:00.736Z,44.85
2019-02-27T12:07:00.738Z,44.76
2019-02-27T12:08:00.757Z,45.45
2019-02-27T12:09:00.798Z,45.43
2019-02-27T12:10:00.801Z,45.26
2019-02-27T12:11:01.102Z,45.36
2019-02-27T12:12:00.830Z,44.68
2019-02-27T12:13:01.331Z,44.68
2019-02-27T12:14:00.894Z,44.97
2019-02-27T12:15:00.858Z,44.68
2019-02-27T12:16:01.387Z,44.68
2019-02-27T12:17:00.890Z,44.40
2019-02-27T12:18:01.700Z,44.32
2019-02-27T12:19:00.940Z,44.42
2019-02-27T12:20:00.930Z,44.23
2019-02-27T12:21:00.954Z,44.42
2019-02-27T12:22:00.956Z,44.90
2019-02-27T12:23:01.005Z,45.54
2019-02-27T12:24:01.046Z,44.51
2019-02-27T12:25:01.004Z,44.80
2019-02-27T12:26:02.447Z,44.70
2019-02-27T12:27:01.028Z,44.42
2019-02-27T12:28:01.045Z,44.51
2019-02-27T12:29:01.076Z,44.61
2019-02-27T12:30:03.092Z,45.00
2019-02-27T12:31:01.090Z,45.00
2019-02-27T12:32:01.104Z,45.76
2019-02-27T12:33:01.119Z,46.05
2019-02-27T12:34:03.265Z,46.05
2019-02-27T12:35:03.098Z,45.37
2019-02-27T12:36:01.161Z,45.37
2019-02-27T12:37:01.195Z,45.67
2019-02-27T12:38:01.192Z,45.57
2019-02-27T12:39:01.203Z,44.90
2019-02-27T12:40:01.226Z,45.67
2019-02-27T12:41:01.235Z,45.67
2019-02-27T12:42:01.268Z,46.14
2019-02-27T12:43:01.406Z,45.86
2019-02-27T12:44:01.277Z,46.34
2019-02-27T12:45:01.314Z,45.86
2019-02-27T12:46:01.709Z,45.28
2019-02-27T12:47:01.324Z,45.86
2019-02-27T12:48:01.348Z,45.59
2019-02-27T12:49:01.346Z,45.57
2019-02-27T12:50:01.379Z,45.37
2019-02-27T12:51:03.670Z,45.57
2019-02-27T12:52:01.390Z,46.24
2019-02-27T12:53:01.408Z,45.95
2019-02-27T12:54:01.418Z,46.26
2019-02-27T12:55:01.905Z,46.55
2019-02-27T12:56:01.450Z,46.17
2019-02-27T12:57:01.511Z,46.26
2019-02-27T12:58:01.553Z,47.13
2019-02-27T12:59:01.548Z,47.13